Time;durP1;ratioP1;P1;durP2;ratioP2;P2;SDS_P1;SDS_P2;PMS_P1;PMS_P2;Temp;Humidity;BMP_temperature;BMP_pressure;BME280_temperature;BME280_humidity;BME280_pressure;Samples;Min_cycle;Max_cycle;Signal;HPM_P1;HPM_P2
2022/09/01 00:02:08;;;;;;;5.47;5.18;;;19.30;85.00;;;;;;5043099;28;20191;-76
2022/09/01 00:04:37;;;;;;;6.45;5.97;;;19.30;85.60;;;;;;5051594;28;20630;-77
2022/09/01 00:07:08;;;;;;;6.20;5.72;;;19.30;85.50;;;;;;5043824;28;20180;-76
2022/09/01 00:09:34;;;;;;;6.68;5.88;;;19.30;85.30;;;;;;5045386;28;20226;-77
2022/09/01 00:12:02;;;;;;;6.10;5.60;;;19.20;85.30;;;;;;5046387;28;20625;-76
2022/09/01 00:14:31;;;;;;;6.95;6.22;;;19.20;85.20;;;;;;5049270;28;20187;-77
2022/09/01 00:17:03;;;;;;;6.85;6.30;;;19.20;85.30;;;;;;5046280;28;20684;-76
2022/09/01 00:19:29;;;;;;;6.90;6.30;;;19.10;84.80;;;;;;5053423;28;20182;-76
2022/09/01 00:21:55;;;;;;;6.65;6.05;;;19.10;85.30;;;;;;5054150;28;20190;-76
2022/09/01 00:24:21;;;;;;;7.75;6.10;;;19.10;85.40;;;;;;5050094;28;20750;-77
2022/09/01 00:26:47;;;;;;;6.78;6.10;;;19.10;85.70;;;;;;5046958;28;20194;-76
2022/09/01 00:29:13;;;;;;;5.63;5.32;;;19.10;85.90;;;;;;5047191;28;20179;-76
2022/09/01 00:31:39;;;;;;;7.95;6.72;;;19.10;85.90;;;;;;5047896;28;20179;-77
2022/09/01 00:34:05;;;;;;;8.32;5.63;;;19.00;86.20;;;;;;5050457;28;20621;-76
2022/09/01 00:36:31;;;;;;;5.80;5.45;;;19.00;86.50;;;;;;5053655;28;20175;-77
2022/09/01 00:38:57;;;;;;;8.07;5.38;;;19.00;86.20;;;;;;5050482;28;20183;-76
2022/09/01 00:41:26;;;;;;;5.40;5.10;;;19.00;86.10;;;;;;5046487;28;20215;-77
2022/09/01 00:43:55;;;;;;;6.05;5.47;;;18.90;86.30;;;;;;5053432;28;20248;-76
2022/09/01 00:46:22;;;;;;;6.05;5.65;;;18.90;86.90;;;;;;5045592;28;20180;-75
2022/09/01 00:48:52;;;;;;;5.95;5.55;;;18.90;87.80;;;;;;5042142;28;20634;-77
2022/09/01 00:51:19;;;;;;;5.82;5.30;;;18.90;87.80;;;;;;5046222;28;20186;-76
2022/09/01 00:53:45;;;;;;;6.43;5.75;;;18.90;87.70;;;;;;5054773;28;20191;-77
2022/09/01 00:56:12;;;;;;;5.72;5.28;;;18.80;87.50;;;;;;5054036;28;20194;-77
2022/09/01 00:58:39;;;;;;;6.25;5.88;;;18.80;88.10;;;;;;5052241;28;20199;-77
2022/09/01 01:01:07;;;;;;;5.80;5.20;;;18.80;87.50;;;;;;5054444;28;20226;-77
2022/09/01 01:03:34;;;;;;;5.82;5.40;;;18.80;87.10;;;;;;5057738;28;20179;-77
2022/09/01 01:06:07;;;;;;;5.55;5.18;;;18.70;87.70;;;;;;5050445;28;20187;-77
2022/09/01 01:08:35;;;;;;;5.53;5.00;;;18.70;87.40;;;;;;5055250;28;20183;-77
2022/09/01 01:11:08;;;;;;;6.95;5.50;;;18.70;87.70;;;;;;5052104;28;20198;-78
2022/09/01 01:13:48;;;;;;;5.38;5.07;;;18.70;87.90;;;;;;5053201;28;20191;-77
2022/09/01 01:16:14;;;;;;;6.05;5.45;;;18.60;87.90;;;;;;5055363;28;20938;-77
2022/09/01 01:18:41;;;;;;;6.63;6.03;;;18.60;88.30;;;;;;5049949;28;20182;-77
2022/09/01 01:24:03;;;;;;;6.63;6.03;;;18.60;88.40;;;;;;5050747;28;20210;-77
2022/09/01 01:26:29;;;;;;;5.88;5.47;;;18.50;88.90;;;;;;5057563;28;20982;-77
2022/09/01 01:28:54;;;;;;;7.25;5.05;;;18.50;88.40;;;;;;5058952;28;20190;-77
2022/09/01 01:31:21;;;;;;;5.35;5.00;;;18.40;88.50;;;;;;5054924;28;20185;-77
2022/09/01 01:33:53;;;;;;;5.05;4.68;;;18.40;88.80;;;;;;5055094;28;20735;-78
2022/09/01 01:36:31;;;;;;;6.80;5.40;;;18.40;88.70;;;;;;5051128;28;21385;-77
2022/09/01 01:39:00;;;;;;;4.93;4.55;;;18.30;88.70;;;;;;5046601;28;20210;-76
2022/09/01 01:41:28;;;;;;;5.72;4.95;;;18.20;88.00;;;;;;5052495;28;20211;-77
2022/09/01 01:43:58;;;;;;;5.22;4.88;;;18.10;88.00;;;;;;5054539;28;20693;-77
2022/09/01 01:46:25;;;;;;;7.38;5.40;;;18.00;87.80;;;;;;5058014;28;20189;-76
2022/09/01 01:48:52;;;;;;;5.32;4.90;;;18.00;88.20;;;;;;5053028;28;20211;-77
2022/09/01 01:51:20;;;;;;;5.80;5.30;;;18.00;87.90;;;;;;5050942;28;20193;-76
2022/09/01 01:53:51;;;;;;;5.32;5.03;;;18.00;88.20;;;;;;5070928;28;20664;-77
2022/09/01 01:56:18;;;;;;;5.90;5.38;;;18.00;87.50;;;;;;5055096;28;20685;-77
2022/09/01 01:58:44;;;;;;;5.53;5.00;;;18.00;88.00;;;;;;5050518;28;20180;-76
2022/09/01 02:01:11;;;;;;;5.68;5.28;;;17.90;87.40;;;;;;5050871;28;20227;-77
2022/09/01 02:03:38;;;;;;;5.07;4.78;;;17.90;88.00;;;;;;5050599;28;20546;-77
2022/09/01 02:06:08;;;;;;;5.88;5.38;;;17.90;88.20;;;;;;5050290;28;20180;-76
2022/09/01 02:08:36;;;;;;;6.60;5.72;;;17.90;87.70;;;;;;5054149;28;20184;-76
2022/09/01 02:11:04;;;;;;;5.95;5.47;;;17.90;88.60;;;;;;5052583;28;20191;-75
2022/09/01 02:13:30;;;;;;;8.10;5.63;;;17.90;88.40;;;;;;5046276;28;20751;-76
2022/09/01 02:16:00;;;;;;;6.28;5.80;;;17.90;89.10;;;;;;5054873;28;20827;-76
2022/09/01 02:18:33;;;;;;;4.60;4.43;;;17.90;88.90;;;;;;5050609;28;20198;-77
2022/09/01 02:20:59;;;;;;;9.30;4.88;;;17.90;88.80;;;;;;5050828;28;20218;-76
2022/09/01 02:23:25;;;;;;;5.82;5.32;;;17.90;89.50;;;;;;5051978;28;20186;-76
2022/09/01 02:25:55;;;;;;;5.63;5.13;;;17.90;89.30;;;;;;5049737;28;20575;-77
2022/09/01 02:28:22;;;;;;;5.82;5.32;;;17.90;89.00;;;;;;5049082;28;20190;-76
2022/09/01 02:30:53;;;;;;;5.68;5.28;;;17.90;89.00;;;;;;5053339;28;20614;-77
2022/09/01 02:33:21;;;;;;;5.20;4.85;;;17.90;88.60;;;;;;5082199;28;20412;-76
2022/09/01 02:35:49;;;;;;;5.80;5.30;;;17.90;88.50;;;;;;5052545;28;20192;-77
2022/09/01 02:38:16;;;;;;;5.68;5.28;;;17.90;88.70;;;;;;5050926;28;20834;-76
2022/09/01 02:40:46;;;;;;;5.32;5.00;;;17.80;88.70;;;;;;5051691;28;20215;-77
2022/09/01 02:43:18;;;;;;;5.80;4.75;;;17.80;88.40;;;;;;5050539;28;20194;-75
2022/09/01 02:45:45;;;;;;;5.28;4.82;;;17.80;88.60;;;;;;5051561;28;20282;-76
2022/09/01 02:48:11;;;;;;;6.32;5.72;;;17.80;88.90;;;;;;5045964;28;21164;-77
2022/09/01 02:50:39;;;;;;;5.47;5.13;;;17.80;88.90;;;;;;5055157;28;20267;-76
2022/09/01 02:53:08;;;;;;;5.30;4.90;;;17.80;88.90;;;;;;5047992;28;20880;-76
2022/09/01 02:55:35;;;;;;;5.45;5.15;;;17.80;89.10;;;;;;5049540;28;20294;-76
2022/09/01 02:58:01;;;;;;;6.53;4.93;;;17.80;89.10;;;;;;5052228;28;20191;-76
2022/09/01 03:00:36;;;;;;;6.30;5.80;;;17.80;89.20;;;;;;5052186;28;20218;-78
2022/09/01 03:03:02;;;;;;;6.53;5.80;;;17.80;89.20;;;;;;5047416;28;20588;-77
2022/09/01 03:05:30;;;;;;;9.18;5.78;;;17.80;89.20;;;;;;5049772;28;20187;-76
2022/09/01 03:07:59;;;;;;;6.47;5.60;;;17.80;89.20;;;;;;5047921;28;20603;-76
2022/09/01 03:10:46;;;;;;;6.00;5.40;;;17.80;89.10;;;;;;5055099;28;20175;-76
2022/09/01 03:13:14;;;;;;;5.57;5.20;;;17.80;89.50;;;;;;5050906;28;20892;-77
2022/09/01 03:15:41;;;;;;;5.18;4.88;;;17.80;89.40;;;;;;5046081;28;20570;-76
2022/09/01 03:18:09;;;;;;;5.40;5.10;;;17.80;89.70;;;;;;5047226;28;20184;-76
2022/09/01 03:20:38;;;;;;;6.30;5.80;;;17.80;89.80;;;;;;5050565;28;20216;-77
2022/09/01 03:23:09;;;;;;;5.80;5.30;;;17.70;89.60;;;;;;5060082;28;20180;-76
2022/09/01 03:25:35;;;;;;;5.50;4.97;;;17.80;89.40;;;;;;5051537;28;20186;-77
2022/09/01 03:28:02;;;;;;;5.88;5.38;;;17.70;89.30;;;;;;5047986;28;20232;-77
2022/09/01 03:30:34;;;;;;;5.90;5.45;;;17.70;89.20;;;;;;5055329;28;20767;-77
2022/09/01 03:33:01;;;;;;;5.00;4.63;;;17.70;88.90;;;;;;5053468;28;20576;-77
2022/09/01 03:35:30;;;;;;;9.90;5.65;;;17.70;89.80;;;;;;5049657;28;20207;-77
2022/09/01 03:37:58;;;;;;;6.57;6.07;;;17.70;90.20;;;;;;5043686;28;20273;-77
2022/09/01 03:40:31;;;;;;;6.50;6.00;;;17.70;90.40;;;;;;5063599;28;20311;-77
2022/09/01 03:42:57;;;;;;;6.60;6.00;;;17.70;89.90;;;;;;5044262;28;20645;-78
2022/09/01 03:45:24;;;;;;;6.70;5.93;;;17.60;89.60;;;;;;5057383;28;20251;-77
2022/09/01 03:47:51;;;;;;;7.68;6.00;;;17.60;89.60;;;;;;5065382;28;20229;-77
2022/09/01 03:50:20;;;;;;;6.85;6.25;;;17.60;89.20;;;;;;5047789;28;20728;-77
2022/09/01 03:52:51;;;;;;;6.20;5.78;;;17.60;89.50;;;;;;5046563;28;20184;-78
2022/09/01 03:55:22;;;;;;;6.57;5.97;;;17.50;89.10;;;;;;5047602;28;20188;-77
2022/09/01 03:57:56;;;;;;;5.63;5.30;;;17.50;89.10;;;;;;5047076;28;20194;-77
2022/09/01 04:00:25;;;;;;;5.82;5.35;;;17.50;89.10;;;;;;5046017;28;20246;-76
2022/09/01 04:02:56;;;;;;;6.57;6.07;;;17.50;90.00;;;;;;5051962;28;20216;-77
2022/09/01 04:05:27;;;;;;;9.25;7.20;;;17.50;90.70;;;;;;5051714;28;20271;-77
2022/09/01 04:07:54;;;;;;;7.03;6.28;;;17.50;90.90;;;;;;5041014;28;20192;-77
2022/09/01 04:10:21;;;;;;;6.93;6.22;;;17.50;90.30;;;;;;5049307;28;20190;-77
2022/09/01 04:12:47;;;;;;;7.35;6.65;;;17.50;90.90;;;;;;5049999;28;20801;-77
2022/09/01 04:15:15;;;;;;;7.88;7.13;;;17.50;90.80;;;;;;5050456;28;20179;-77
2022/09/01 04:20:38;;;;;;;9.30;5.80;;;17.50;90.50;;;;;;5051300;28;20217;-77
2022/09/01 04:23:09;;;;;;;6.88;6.13;;;17.40;90.50;;;;;;5050390;28;20206;-78
2022/09/01 04:25:37;;;;;;;6.28;5.78;;;17.40;90.60;;;;;;5049035;28;20292;-76
2022/09/01 04:28:11;;;;;;;9.80;6.97;;;17.40;91.40;;;;;;5049365;28;20240;-76
2022/09/01 04:30:39;;;;;;;9.07;6.85;;;17.40;91.50;;;;;;5051462;28;20211;-76
2022/09/01 04:33:06;;;;;;;8.48;6.50;;;17.50;91.50;;;;;;5051196;28;20259;-77
2022/09/01 04:35:37;;;;;;;8.52;6.43;;;17.40;91.30;;;;;;5052588;28;20626;-77
2022/09/01 04:38:03;;;;;;;8.63;6.90;;;17.40;91.00;;;;;;5050817;28;20185;-77
2022/09/01 04:40:28;;;;;;;17.25;6.97;;;17.40;91.50;;;;;;5049287;28;20214;-77
2022/09/01 04:42:54;;;;;;;7.95;6.60;;;17.40;91.20;;;;;;5047080;28;20318;-77
2022/09/01 04:45:26;;;;;;;8.02;6.35;;;17.30;91.10;;;;;;5050850;28;20200;-77
2022/09/01 04:47:52;;;;;;;7.18;6.50;;;17.30;90.80;;;;;;5049958;28;20186;-77
2022/09/01 04:50:18;;;;;;;7.10;6.22;;;17.30;91.00;;;;;;5049645;28;20196;-77
2022/09/01 04:52:46;;;;;;;9.80;6.82;;;17.30;91.10;;;;;;5045999;28;20187;-77
2022/09/01 04:55:16;;;;;;;9.38;6.95;;;17.40;91.10;;;;;;5047751;28;20189;-77
2022/09/01 04:57:51;;;;;;;8.20;7.43;;;17.40;91.30;;;;;;5049321;28;20194;-77
2022/09/01 05:00:23;;;;;;;7.68;6.82;;;17.40;90.50;;;;;;5046408;28;20222;-77
2022/09/01 05:03:03;;;;;;;7.57;6.40;;;17.40;90.70;;;;;;5049152;28;20180;-77
2022/09/01 05:05:38;;;;;;;7.70;6.90;;;17.50;90.90;;;;;;5046678;28;20337;-77
2022/09/01 05:08:12;;;;;;;7.07;6.40;;;17.50;90.90;;;;;;5043832;28;21857;-78
2022/09/01 05:10:43;;;;;;;9.00;7.25;;;17.50;91.30;;;;;;5052236;28;20248;-78
2022/09/01 05:13:11;;;;;;;9.13;7.28;;;17.50;90.80;;;;;;5052971;28;20691;-77
2022/09/01 05:15:45;;;;;;;6.93;5.97;;;17.50;91.20;;;;;;5050234;28;20917;-76
2022/09/01 05:18:26;;;;;;;8.88;6.95;;;17.50;90.70;;;;;;5050587;28;20188;-76
2022/09/01 05:20:53;;;;;;;6.70;6.07;;;17.60;90.00;;;;;;5047469;28;20335;-76
2022/09/01 05:23:20;;;;;;;5.82;5.45;;;17.60;90.50;;;;;;5050366;28;20180;-76
2022/09/01 05:25:53;;;;;;;7.50;6.38;;;17.70;90.30;;;;;;5048034;28;20183;-77
2022/09/01 05:28:23;;;;;;;6.90;6.30;;;17.70;90.00;;;;;;5060216;28;20183;-76
2022/09/01 05:30:52;;;;;;;8.48;6.43;;;17.80;91.10;;;;;;5050283;28;20191;-76
2022/09/01 05:33:20;;;;;;;7.05;6.45;;;17.90;90.90;;;;;;5081382;28;20215;-77
2022/09/01 05:35:55;;;;;;;6.88;6.00;;;17.90;90.70;;;;;;5051259;28;20214;-77
2022/09/01 05:38:24;;;;;;;8.02;6.40;;;17.90;89.90;;;;;;5051135;28;20186;-78
2022/09/01 05:41:07;;;;;;;6.88;6.25;;;18.00;90.60;;;;;;5052148;28;20207;-77
2022/09/01 05:43:33;;;;;;;7.40;6.05;;;18.10;89.60;;;;;;5055686;28;20260;-77
2022/09/01 05:46:00;;;;;;;7.80;6.95;;;18.10;90.90;;;;;;5052406;28;20294;-77
2022/09/01 05:48:30;;;;;;;8.48;7.20;;;18.20;90.50;;;;;;5049217;28;20194;-77
2022/09/01 05:50:59;;;;;;;7.32;6.72;;;18.30;90.50;;;;;;5053125;28;20190;-76
2022/09/01 05:53:29;;;;;;;10.90;7.40;;;18.30;90.20;;;;;;5050682;28;20188;-78
2022/09/01 05:55:56;;;;;;;13.55;8.02;;;18.40;89.90;;;;;;5049523;28;20183;-77
2022/09/01 05:58:24;;;;;;;8.52;7.70;;;18.50;90.10;;;;;;5052158;28;20198;-77
2022/09/01 06:00:52;;;;;;;9.48;7.60;;;18.60;90.30;;;;;;5050214;28;20218;-77
2022/09/01 06:03:21;;;;;;;12.02;9.30;;;18.60;90.10;;;;;;5049606;28;20590;-77
2022/09/01 06:05:51;;;;;;;8.35;7.55;;;18.70;90.50;;;;;;5052633;28;20599;-77
2022/09/01 06:08:18;;;;;;;12.07;8.55;;;18.80;90.30;;;;;;5045752;28;21041;-78
2022/09/01 06:10:45;;;;;;;12.52;8.65;;;18.90;90.40;;;;;;5056000;28;20269;-77
2022/09/01 06:13:14;;;;;;;10.23;8.38;;;19.00;90.60;;;;;;5048867;28;20569;-78
2022/09/01 06:15:41;;;;;;;12.25;8.75;;;19.10;90.50;;;;;;5082457;28;20199;-77
2022/09/01 06:18:10;;;;;;;9.57;8.25;;;19.20;90.10;;;;;;5055932;28;20191;-76
2022/09/01 06:20:44;;;;;;;12.38;9.20;;;19.20;90.10;;;;;;5055323;28;20730;-76
2022/09/01 06:23:14;;;;;;;9.85;8.43;;;19.30;89.60;;;;;;5053392;28;20228;-78
2022/09/01 06:25:42;;;;;;;12.73;9.73;;;19.30;89.90;;;;;;5052865;28;20195;-79
2022/09/01 06:28:10;;;;;;;12.23;8.88;;;19.40;89.80;;;;;;5054363;28;20983;-80
2022/09/01 06:30:37;;;;;;;11.15;9.05;;;19.50;89.70;;;;;;5051902;28;20184;-78
2022/09/01 06:33:08;;;;;;;12.18;9.45;;;19.50;89.50;;;;;;5053489;28;20588;-78
2022/09/01 06:35:34;;;;;;;13.23;8.88;;;19.60;89.20;;;;;;5057011;28;20183;-79
2022/09/01 06:38:01;;;;;;;12.70;8.40;;;19.60;89.50;;;;;;5054636;28;20622;-79
2022/09/01 06:40:27;;;;;;;13.95;10.13;;;19.70;89.30;;;;;;5048739;28;20376;-76
2022/09/01 06:42:53;;;;;;;13.05;10.38;;;19.70;89.40;;;;;;5057378;28;20187;-77
2022/09/01 06:45:22;;;;;;;12.55;9.18;;;19.70;89.30;;;;;;5057097;28;20194;-76
2022/09/01 06:47:51;;;;;;;12.90;9.05;;;19.80;89.20;;;;;;5053701;28;20974;-78
2022/09/01 06:50:20;;;;;;;15.07;10.50;;;19.90;89.20;;;;;;5053735;28;20557;-76
2022/09/01 06:53:02;;;;;;;13.23;9.73;;;19.90;89.00;;;;;;5049831;28;20187;-77
2022/09/01 06:55:32;;;;;;;17.02;9.95;;;20.00;89.00;;;;;;5051131;28;20665;-77
2022/09/01 06:57:58;;;;;;;17.25;11.38;;;20.10;89.40;;;;;;5052305;28;20218;-77
2022/09/01 07:00:25;;;;;;;17.15;10.82;;;20.10;88.80;;;;;;5052476;28;20294;-76
2022/09/01 07:02:56;;;;;;;16.00;10.80;;;20.20;88.90;;;;;;5048345;28;20180;-77
2022/09/01 07:05:23;;;;;;;14.68;9.80;;;20.20;88.40;;;;;;5052315;28;20656;-76
2022/09/01 07:07:50;;;;;;;11.20;9.38;;;20.30;88.80;;;;;;5051782;28;20187;-77
2022/09/01 07:10:21;;;;;;;15.68;10.63;;;20.30;88.80;;;;;;5053671;28;20214;-77
2022/09/01 07:12:52;;;;;;;16.38;9.77;;;20.40;88.70;;;;;;5050096;28;20210;-77
2022/09/01 07:15:18;;;;;;;18.45;9.85;;;20.50;88.30;;;;;;5050406;28;20187;-77
2022/09/01 07:17:51;;;;;;;15.65;10.65;;;20.60;88.50;;;;;;5054229;28;20186;-77
2022/09/01 07:20:20;;;;;;;16.02;10.30;;;20.70;88.00;;;;;;5046307;28;20215;-78
2022/09/01 07:22:46;;;;;;;14.27;10.13;;;20.80;88.30;;;;;;5049736;28;20187;-77
2022/09/01 07:25:12;;;;;;;15.00;10.27;;;20.90;88.10;;;;;;5051615;28;20574;-77
2022/09/01 07:27:49;;;;;;;13.48;10.02;;;21.00;87.70;;;;;;5053867;28;20187;-78
2022/09/01 07:30:17;;;;;;;14.15;10.18;;;21.00;86.80;;;;;;5055012;28;20728;-79
2022/09/01 07:32:43;;;;;;;15.82;10.77;;;21.10;86.70;;;;;;5052461;28;20184;-79
2022/09/01 07:35:13;;;;;;;11.88;9.60;;;21.20;87.00;;;;;;5053795;28;20228;-79
2022/09/01 07:37:39;;;;;;;16.08;10.98;;;21.20;86.90;;;;;;5051220;28;20213;-78
2022/09/01 07:40:07;;;;;;;15.38;10.73;;;21.30;87.00;;;;;;5065450;28;21010;-79
2022/09/01 07:42:33;;;;;;;16.55;10.45;;;21.40;86.70;;;;;;5072749;28;20250;-82
2022/09/01 07:44:59;;;;;;;17.40;12.70;;;21.40;86.90;;;;;;5070688;28;20631;-77
2022/09/01 07:47:27;;;;;;;21.20;11.52;;;21.50;86.90;;;;;;5054939;28;20192;-77
2022/09/01 07:49:53;;;;;;;19.25;12.10;;;21.60;86.50;;;;;;5050663;28;20191;-79
2022/09/01 07:52:19;;;;;;;17.40;11.50;;;21.70;86.40;;;;;;5051832;28;20184;-78
2022/09/01 07:54:45;;;;;;;19.90;12.63;;;21.80;86.50;;;;;;5051683;28;20660;-83
2022/09/01 07:57:10;;;;;;;18.83;13.25;;;21.90;85.20;;;;;;5066419;28;20187;-78
2022/09/01 07:59:36;;;;;;;21.60;13.75;;;21.90;85.20;;;;;;5056279;28;20187;-80
2022/09/01 08:02:04;;;;;;;23.85;14.02;;;22.00;84.30;;;;;;5050025;28;20293;-76
2022/09/01 08:04:32;;;;;;;19.35;13.43;;;22.20;84.30;;;;;;5049679;28;20180;-83
2022/09/01 08:06:59;;;;;;;18.58;13.13;;;22.20;83.90;;;;;;5054398;28;20184;-80
2022/09/01 08:09:24;;;;;;;20.25;12.43;;;22.30;84.30;;;;;;5050546;28;20191;-82
2022/09/01 08:11:51;;;;;;;19.20;11.77;;;22.30;84.30;;;;;;5055959;28;20188;-81
2022/09/01 08:14:16;;;;;;;20.23;12.27;;;22.40;84.60;;;;;;5052610;28;20187;-84
2022/09/01 08:16:42;;;;;;;14.23;11.20;;;22.50;84.60;;;;;;5046912;28;20204;-84
2022/09/01 08:19:08;;;;;;;13.00;10.77;;;22.60;84.50;;;;;;5050438;28;20194;-84
2022/09/01 08:21:34;;;;;;;14.98;11.80;;;22.70;84.40;;;;;;5047983;28;20226;-84
2022/09/01 08:24:00;;;;;;;15.90;11.32;;;22.90;84.30;;;;;;5050267;28;20175;-84
2022/09/01 08:26:26;;;;;;;13.15;11.45;;;23.00;83.60;;;;;;5045915;28;20199;-77
2022/09/01 08:28:53;;;;;;;15.30;12.05;;;23.20;83.60;;;;;;5046138;28;20727;-85
2022/09/01 08:31:19;;;;;;;16.48;11.90;;;23.30;83.40;;;;;;5044253;28;20180;-85
2022/09/01 08:33:47;;;;;;;15.63;11.90;;;23.50;82.50;;;;;;5053798;28;20183;-85
2022/09/01 08:36:15;;;;;;;14.82;11.40;;;23.70;82.00;;;;;;5050055;28;20179;-84
2022/09/01 08:38:41;;;;;;;22.58;13.68;;;23.90;81.30;;;;;;5054989;28;20206;-85
2022/09/01 08:41:22;;;;;;;16.67;11.57;;;24.00;80.90;;;;;;5053785;28;20772;-83
2022/09/01 08:44:03;;;;;;;20.73;12.43;;;24.00;80.30;;;;;;5042963;28;20196;-84
2022/09/01 08:46:36;;;;;;;17.80;12.65;;;24.20;79.80;;;;;;5052052;28;20670;-84
2022/09/01 08:49:19;;;;;;;14.23;10.63;;;24.40;78.70;;;;;;5051541;28;20171;-83
2022/09/01 08:51:55;;;;;;;12.32;10.93;;;24.60;78.60;;;;;;5047709;28;20179;-85
2022/09/01 08:54:35;;;;;;;15.15;10.65;;;24.80;77.90;;;;;;5049607;28;20190;-84
2022/09/01 08:57:05;;;;;;;13.93;10.95;;;25.20;77.40;;;;;;5046753;28;20182;-84
2022/09/01 08:59:31;;;;;;;13.15;11.38;;;25.50;75.80;;;;;;5047347;28;21028;-82
2022/09/01 09:02:22;;;;;;;13.80;11.15;;;26.00;74.70;;;;;;5046269;28;20207;-83
2022/09/01 09:05:16;;;;;;;14.15;10.90;;;26.50;73.80;;;;;;5043220;28;20179;-82
2022/09/01 09:07:50;;;;;;;13.65;11.00;;;27.10;73.70;;;;;;5048891;28;20183;-83
2022/09/01 09:10:15;;;;;;;12.55;10.27;;;27.70;70.90;;;;;;5050048;28;20272;-83
2022/09/01 09:13:15;;;;;;;15.05;10.75;;;28.30;71.40;;;;;;5050864;28;20187;-83
2022/09/01 09:15:59;;;;;;;13.35;10.52;;;29.10;68.50;;;;;;5047781;28;20190;-78
2022/09/01 09:18:49;;;;;;;9.95;9.02;;;29.90;68.10;;;;;;5055293;28;20174;-81
2022/09/01 09:21:32;;;;;;;12.38;9.45;;;30.80;69.00;;;;;;5050257;28;20234;-83
2022/09/01 09:24:05;;;;;;;10.90;9.80;;;31.80;66.80;;;;;;5052049;28;20270;-85
2022/09/01 09:26:31;;;;;;;11.68;10.35;;;32.60;66.20;;;;;;5052334;28;20183;-85
2022/09/01 09:28:57;;;;;;;11.20;10.20;;;33.40;63.30;;;;;;5051314;28;20178;-85
2022/09/01 09:31:27;;;;;;;11.70;10.60;;;34.00;63.00;;;;;;5049430;28;20215;-84
2022/09/01 09:33:53;;;;;;;12.07;10.88;;;34.50;60.10;;;;;;5051229;28;20183;-84
2022/09/01 09:36:29;;;;;;;10.32;9.32;;;34.60;60.20;;;;;;5051883;28;20522;-84
2022/09/01 09:39:22;;;;;;;11.00;8.82;;;34.90;60.00;;;;;;5054668;28;20254;-84
2022/09/01 09:42:10;;;;;;;10.00;9.00;;;35.40;59.30;;;;;;5050463;28;20950;-84
2022/09/01 09:44:51;;;;;;;9.23;8.48;;;36.00;59.50;;;;;;5056766;28;20194;-83
2022/09/01 09:47:38;;;;;;;8.25;7.50;;;36.50;54.70;;;;;;5052323;28;20209;-84
2022/09/01 09:50:24;;;;;;;8.30;7.50;;;36.60;54.80;;;;;;5050184;28;20274;-83
2022/09/01 09:52:52;;;;;;;8.57;7.88;;;36.80;54.00;;;;;;5047054;28;20183;-83
2022/09/01 09:55:23;;;;;;;7.35;6.82;;;37.10;55.60;;;;;;5050727;28;20190;-82
2022/09/01 09:57:52;;;;;;;7.85;7.25;;;37.30;57.40;;;;;;5054695;28;20179;-83
2022/09/01 10:00:32;;;;;;;7.78;7.28;;;37.40;56.70;;;;;;5052167;28;20219;-83
2022/09/01 10:03:00;;;;;;;7.63;7.03;;;37.40;52.80;;;;;;5054014;28;20190;-83
2022/09/01 10:05:38;;;;;;;8.18;7.32;;;37.60;56.20;;;;;;5057545;28;20581;-83
2022/09/01 10:08:11;;;;;;;7.80;7.10;;;38.00;54.90;;;;;;5051304;28;20171;-83
2022/09/01 10:10:45;;;;;;;6.95;6.53;;;38.30;55.30;;;;;;5051380;28;20195;-83
2022/09/01 10:13:17;;;;;;;7.57;6.90;;;38.50;53.30;;;;;;5055046;28;20178;-84
2022/09/01 10:15:48;;;;;;;6.72;6.30;;;38.70;53.20;;;;;;5052552;28;20181;-83
2022/09/01 10:18:28;;;;;;;6.90;6.50;;;38.80;52.60;;;;;;5051026;28;20274;-83
2022/09/01 10:21:03;;;;;;;9.27;6.35;;;38.70;53.70;;;;;;5052907;28;20224;-83
2022/09/01 10:23:31;;;;;;;6.75;6.32;;;38.70;54.70;;;;;;5059634;28;20175;-83
2022/09/01 10:26:12;;;;;;;6.68;6.07;;;38.90;54.90;;;;;;5052504;28;20240;-83
2022/09/01 10:28:52;;;;;;;7.35;6.75;;;39.30;54.50;;;;;;5053087;28;20210;-82
2022/09/01 10:31:19;;;;;;;7.35;6.65;;;39.80;55.90;;;;;;5052751;28;20257;-83
2022/09/01 10:33:45;;;;;;;7.47;6.82;;;40.20;54.30;;;;;;5056685;28;20584;-83
2022/09/01 10:36:13;;;;;;;7.10;6.38;;;40.50;53.90;;;;;;5053752;28;20175;-83
2022/09/01 10:38:41;;;;;;;6.32;5.72;;;40.30;53.20;;;;;;5052948;28;20179;-83
2022/09/01 10:41:06;;;;;;;7.03;6.60;;;40.20;53.80;;;;;;5050010;28;20214;-83
2022/09/01 10:43:40;;;;;;;7.10;6.70;;;40.30;50.50;;;;;;5048188;28;20650;-83
2022/09/01 10:46:25;;;;;;;6.93;6.53;;;40.30;50.80;;;;;;5048977;28;20179;-82
2022/09/01 10:48:54;;;;;;;8.20;7.53;;;40.10;48.10;;;;;;5055221;28;20182;-83
2022/09/01 10:51:19;;;;;;;7.53;7.03;;;39.70;49.70;;;;;;5048767;28;20191;-83
2022/09/01 10:53:52;;;;;;;8.10;7.50;;;39.40;53.10;;;;;;5053449;28;20603;-83
2022/09/01 10:56:42;;;;;;;6.75;6.35;;;39.20;50.80;;;;;;5057859;28;20186;-83
2022/09/01 10:59:23;;;;;;;6.45;5.95;;;39.00;50.00;;;;;;5052221;28;20183;-83
2022/09/01 11:01:48;;;;;;;6.20;5.70;;;39.10;50.40;;;;;;5049187;28;20211;-82
2022/09/01 11:04:18;;;;;;;7.10;6.53;;;39.30;52.00;;;;;;5053184;28;20221;-83
2022/09/01 11:06:49;;;;;;;7.45;6.68;;;39.50;50.60;;;;;;5054597;28;20236;-83
2022/09/01 11:09:25;;;;;;;6.57;6.10;;;39.60;50.00;;;;;;5045286;28;20199;-83
2022/09/01 11:11:53;;;;;;;6.80;6.40;;;39.50;51.50;;;;;;5053501;28;20272;-83
2022/09/01 11:14:28;;;;;;;7.30;6.70;;;39.40;51.50;;;;;;5053603;28;20237;-82
2022/09/01 11:17:35;;;;;;;7.70;7.07;;;39.10;49.30;;;;;;5055134;28;20540;-83
2022/09/01 11:20:08;;;;;;;6.97;6.38;;;39.00;48.80;;;;;;4985577;28;20612;-82
2022/09/01 11:22:36;;;;;;;7.13;6.60;;;38.70;50.10;;;;;;5001638;28;20193;-82
2022/09/01 11:25:42;;;;;;;6.78;6.35;;;38.20;49.10;;;;;;5000922;28;20192;-81
2022/09/01 11:28:35;;;;;;;7.57;6.85;;;37.60;50.80;;;;;;4983862;28;20287;-82
2022/09/01 11:31:07;;;;;;;7.35;6.75;;;37.20;50.00;;;;;;5004238;28;20193;-82
2022/09/01 11:33:51;;;;;;;7.00;6.55;;;36.80;52.00;;;;;;5004024;28;20568;-82
2022/09/01 11:36:43;;;;;;;6.78;6.18;;;36.80;51.10;;;;;;4998938;28;20189;-83
2022/09/01 11:39:25;;;;;;;6.25;5.75;;;36.50;50.10;;;;;;5004701;28;20672;-82
2022/09/01 11:42:15;;;;;;;6.32;6.00;;;36.40;54.10;;;;;;5017630;28;20640;-80
2022/09/01 11:44:52;;;;;;;6.15;5.80;;;36.30;51.80;;;;;;5001617;28;20196;-77
2022/09/01 11:47:30;;;;;;;5.80;5.28;;;36.30;53.30;;;;;;4999780;28;20196;-78
2022/09/01 11:50:24;;;;;;;6.30;5.80;;;36.40;53.80;;;;;;5001066;28;20214;-77
2022/09/01 11:52:59;;;;;;;5.70;5.22;;;36.60;51.10;;;;;;4997655;28;20204;-75
2022/09/01 11:55:52;;;;;;;5.72;5.32;;;36.90;53.40;;;;;;5006691;28;20198;-81
2022/09/01 11:58:26;;;;;;;5.68;5.32;;;37.40;50.60;;;;;;5045834;28;20286;-84
2022/09/01 12:00:59;;;;;;;5.72;5.38;;;37.90;50.70;;;;;;5045982;28;21100;-83
2022/09/01 12:03:29;;;;;;;5.40;5.22;;;38.50;50.30;;;;;;5047170;28;20183;-84
2022/09/01 12:06:01;;;;;;;6.30;5.88;;;38.70;52.30;;;;;;5046648;28;20213;-83
2022/09/01 12:08:37;;;;;;;5.28;5.18;;;38.90;52.20;;;;;;5038355;28;20179;-82
2022/09/01 12:11:11;;;;;;;6.05;5.53;;;39.20;52.70;;;;;;5045937;28;20206;-83
2022/09/01 12:13:39;;;;;;;6.00;5.70;;;39.20;49.10;;;;;;5045081;28;20214;-82
2022/09/01 12:16:09;;;;;;;6.18;5.88;;;39.40;50.40;;;;;;5044194;28;22088;-79
2022/09/01 12:18:43;;;;;;;5.88;5.57;;;39.40;48.30;;;;;;5046977;28;20194;-83
2022/09/01 12:21:25;;;;;;;7.55;6.03;;;39.50;48.30;;;;;;5050478;28;20913;-79
2022/09/01 12:23:52;;;;;;;6.18;5.75;;;39.10;49.10;;;;;;5049481;28;20194;-82
2022/09/01 12:26:28;;;;;;;6.93;6.28;;;38.90;50.60;;;;;;5047026;28;20186;-84
2022/09/01 12:28:54;;;;;;;6.57;6.07;;;38.70;51.60;;;;;;5046476;28;20186;-83
2022/09/01 12:31:23;;;;;;;7.38;6.78;;;38.70;50.70;;;;;;5046577;28;20725;-82
2022/09/01 12:33:51;;;;;;;6.57;6.22;;;38.40;49.50;;;;;;5044992;28;20175;-84
2022/09/01 12:36:24;;;;;;;6.55;6.18;;;38.00;51.00;;;;;;5048643;28;21032;-83
2022/09/01 12:38:52;;;;;;;6.53;6.03;;;37.90;52.00;;;;;;5042225;28;20269;-81
2022/09/01 12:41:32;;;;;;;6.88;6.35;;;37.30;54.70;;;;;;5045693;28;20226;-83
2022/09/01 12:44:29;;;;;;;9.82;6.15;;;37.20;51.80;;;;;;5037092;28;20205;-83
2022/09/01 12:47:00;;;;;;;7.20;6.60;;;36.50;52.50;;;;;;5050189;28;20265;-83
2022/09/01 12:49:36;;;;;;;7.88;7.10;;;35.90;54.60;;;;;;5048341;28;20193;-82
2022/09/01 12:52:05;;;;;;;7.38;6.72;;;35.60;54.50;;;;;;5043910;28;20179;-83
2022/09/01 12:54:31;;;;;;;8.32;7.43;;;35.00;55.50;;;;;;5047106;28;20194;-83
2022/09/01 12:56:57;;;;;;;7.90;7.40;;;34.50;56.10;;;;;;5048900;28;20688;-83
2022/09/01 12:59:25;;;;;;;7.03;6.63;;;34.30;57.90;;;;;;5043112;28;20193;-83
2022/09/01 13:01:51;;;;;;;7.75;7.03;;;34.00;56.90;;;;;;5044680;28;20860;-84
2022/09/01 13:04:20;;;;;;;7.43;6.85;;;33.90;57.10;;;;;;5044205;28;20183;-81
2022/09/01 13:06:47;;;;;;;6.65;6.35;;;33.70;57.00;;;;;;5049315;28;20183;-84
2022/09/01 13:09:13;;;;;;;7.55;7.05;;;33.60;57.50;;;;;;5042137;28;20248;-83